< < Back
Terminal Aerodrome Forecast


Current Version              Previous Versions:   1  2  3  4  5  6  7  8  9  

Terminal Aerodrome Forecast

576
FTUS44 KMRX 012321
TAFCHA
TAF
KCHA 012321Z 0200/0224 17005KT P6SM VCTS SCT040CB OVC080
      TEMPO 0200/0202 4SM -SHRA BR SCT010 OVC035
     FM020200 VRB03KT P6SM SCT025 BKN090
     FM020900 VRB03KT P6SM VCTS BKN025CB
     FM021600 22007KT P6SM VCTS SCT025CB BKN100
     FM022000 21012KT 3SM TSRA BR BKN025CB OVC050=

Latest METAR

283
SAUS80 KWBC 020500 RRB
MTRCHA
METAR KCHA 020453Z AUTO 21003KT 7SM 20/19 A3003 RMK AO2 LTG DSNT N AND
NW RAB14E30 SLP161 P0001 T02000194 402780200 $


USA.gov is the U.S. government's official web portal to all federal, state and local government web resources and services.